createdAt,value
2018-09-27T00:00:14.068Z,101337.00
2018-09-27T00:02:43.488Z,101338.00
2018-09-27T00:05:12.857Z,101336.00
2018-09-27T00:07:42.338Z,101342.00
2018-09-27T00:10:11.527Z,101335.00
2018-09-27T00:12:40.801Z,101340.00
2018-09-27T00:15:10.038Z,101341.00
2018-09-27T00:17:39.122Z,101344.00
2018-09-27T00:20:08.542Z,101339.00
2018-09-27T00:22:37.675Z,101335.00
2018-09-27T00:25:06.824Z,101332.00
2018-09-27T00:27:36.025Z,101331.00
2018-09-27T00:30:05.172Z,101329.00
2018-09-27T00:32:34.412Z,101332.00
2018-09-27T00:35:03.655Z,101329.00
2018-09-27T00:37:32.768Z,101329.00
2018-09-27T00:40:01.856Z,101329.00
2018-09-27T00:42:31.108Z,101324.00
2018-09-27T00:45:00.897Z,101317.00
2018-09-27T00:47:30.120Z,101321.00
2018-09-27T00:50:00.558Z,101326.00
2018-09-27T00:52:29.983Z,101328.00
2018-09-27T00:54:59.047Z,101325.00
2018-09-27T00:57:28.049Z,101320.00
2018-09-27T00:59:57.312Z,101317.00
2018-09-27T01:02:26.416Z,101310.00
2018-09-27T01:04:55.533Z,101305.00
2018-09-27T01:07:24.680Z,101305.00
2018-09-27T01:09:53.688Z,101307.00
2018-09-27T01:12:22.732Z,101297.00
2018-09-27T01:14:51.734Z,101301.00
2018-09-27T01:17:20.838Z,101295.00
2018-09-27T01:19:49.853Z,101294.00
2018-09-27T01:22:20.008Z,101293.00
2018-09-27T01:24:49.169Z,101293.00
2018-09-27T01:27:18.273Z,101298.00
2018-09-27T01:29:47.427Z,101293.00
2018-09-27T01:32:16.652Z,101288.00
2018-09-27T01:34:45.741Z,101290.00
2018-09-27T01:37:15.352Z,101291.00
2018-09-27T01:39:44.568Z,101283.00
2018-09-27T01:42:13.741Z,101280.00
2018-09-27T01:44:43.047Z,101277.00
2018-09-27T01:47:13.222Z,101273.00
2018-09-27T01:49:42.304Z,101278.00
2018-09-27T01:52:11.561Z,101279.00
2018-09-27T01:54:40.801Z,101274.00
2018-09-27T01:57:09.866Z,101281.00
2018-09-27T01:59:39.770Z,101275.00
2018-09-27T02:02:08.937Z,101275.00
2018-09-27T02:04:37.964Z,101271.00
2018-09-27T02:07:07.111Z,101273.00
2018-09-27T02:09:36.180Z,101268.00
2018-09-27T02:12:05.264Z,101262.00
2018-09-27T02:14:34.994Z,101261.00
2018-09-27T02:17:04.053Z,101264.00
2018-09-27T02:19:33.401Z,101263.00
2018-09-27T02:22:02.492Z,101263.00
2018-09-27T02:24:31.584Z,101259.00
2018-09-27T02:27:00.704Z,101260.00
2018-09-27T02:29:29.864Z,101258.00
2018-09-27T02:31:59.307Z,101251.00
2018-09-27T02:34:28.405Z,101252.00
2018-09-27T02:36:57.616Z,101249.00
2018-09-27T02:39:26.834Z,101245.00
2018-09-27T02:41:56.084Z,101247.00
2018-09-27T02:44:25.225Z,101237.00
2018-09-27T02:46:54.418Z,101242.00
2018-09-27T02:49:23.541Z,101239.00
2018-09-27T02:51:52.738Z,101232.00
2018-09-27T02:54:21.960Z,101228.00
2018-09-27T02:56:51.016Z,101233.00
2018-09-27T02:59:20.157Z,101233.00
2018-09-27T03:01:49.464Z,101230.00
2018-09-27T03:04:18.934Z,101223.00
2018-09-27T03:06:48.097Z,101220.00
2018-09-27T03:09:17.196Z,101224.00
2018-09-27T03:11:46.356Z,101227.00
2018-09-27T03:14:15.424Z,101219.00
2018-09-27T03:16:44.602Z,101216.00
2018-09-27T03:19:13.788Z,101213.00
2018-09-27T03:21:42.937Z,101209.00
2018-09-27T03:24:12.040Z,101209.00
2018-09-27T03:26:41.128Z,101203.00
2018-09-27T03:29:11.308Z,101201.00
2018-09-27T03:31:40.565Z,101198.00
2018-09-27T03:34:10.897Z,101197.00
2018-09-27T03:36:40.020Z,101201.00
2018-09-27T03:39:10.411Z,101202.00
2018-09-27T03:41:39.544Z,101200.00
2018-09-27T03:44:08.626Z,101193.00
2018-09-27T03:46:37.683Z,101196.00
2018-09-27T03:49:06.776Z,101188.00
2018-09-27T03:51:35.941Z,101185.00
2018-09-27T03:54:05.110Z,101188.00
2018-09-27T03:56:34.176Z,101186.00
2018-09-27T03:59:03.964Z,101188.00
2018-09-27T04:01:33.123Z,101187.00
2018-09-27T04:04:02.217Z,101184.00
2018-09-27T04:06:31.236Z,101182.00
2018-09-27T04:09:00.369Z,101181.00
2018-09-27T04:11:29.526Z,101183.00
2018-09-27T04:13:58.624Z,101185.00
2018-09-27T04:16:27.753Z,101181.00
2018-09-27T04:18:56.841Z,101182.00
2018-09-27T04:21:25.896Z,101177.00
2018-09-27T04:23:55.066Z,101175.00
2018-09-27T04:26:24.228Z,101181.00
2018-09-27T04:28:53.433Z,101181.00
2018-09-27T04:31:22.600Z,101186.00
2018-09-27T04:33:51.870Z,101182.00
2018-09-27T04:36:21.128Z,101180.00
2018-09-27T04:38:50.398Z,101180.00
2018-09-27T04:41:20.002Z,101174.00
2018-09-27T04:43:49.429Z,101176.00
2018-09-27T04:46:18.987Z,101168.00
2018-09-27T04:48:48.504Z,101165.00
2018-09-27T04:51:17.715Z,101156.00
2018-09-27T04:53:47.046Z,101160.00
2018-09-27T04:56:16.410Z,101159.00
2018-09-27T04:58:46.104Z,101159.00
2018-09-27T05:01:15.585Z,101168.00
2018-09-27T05:03:45.204Z,101164.00
2018-09-27T05:06:15.329Z,101163.00
2018-09-27T05:08:44.925Z,101157.00
2018-09-27T05:11:16.544Z,101157.00
2018-09-27T05:13:47.368Z,101156.00
2018-09-27T05:16:17.340Z,101151.00
2018-09-27T05:18:49.076Z,101146.00
2018-09-27T05:21:19.371Z,101149.00
2018-09-27T05:23:50.223Z,101149.00
2018-09-27T05:26:19.551Z,101154.00
2018-09-27T05:28:48.795Z,101138.00
2018-09-27T05:31:18.221Z,101137.00
2018-09-27T05:33:47.675Z,101133.00
2018-09-27T05:36:17.015Z,101133.00
2018-09-27T05:38:46.268Z,101135.00
2018-09-27T05:41:15.512Z,101129.00
2018-09-27T05:43:45.109Z,101128.00
2018-09-27T05:46:14.523Z,101129.00
2018-09-27T05:48:43.886Z,101133.00
2018-09-27T05:51:13.290Z,101137.00
2018-09-27T05:53:42.761Z,101127.00
2018-09-27T05:56:13.989Z,101130.00
2018-09-27T05:58:43.667Z,101125.00
2018-09-27T06:01:14.094Z,101125.00
2018-09-27T06:03:43.310Z,101124.00
2018-09-27T06:06:13.094Z,101122.00
2018-09-27T06:08:42.558Z,101118.00
2018-09-27T06:11:12.308Z,101114.00
2018-09-27T06:13:41.966Z,101109.00
2018-09-27T06:16:11.218Z,101115.00
2018-09-27T06:18:40.765Z,101118.00
2018-09-27T06:21:11.275Z,101114.00
2018-09-27T06:23:40.966Z,101110.00
2018-09-27T06:26:10.391Z,101106.00
2018-09-27T06:28:41.136Z,101107.00
2018-09-27T06:31:12.941Z,101104.00
2018-09-27T06:33:42.711Z,101103.00
2018-09-27T06:36:12.722Z,101106.00
2018-09-27T06:38:42.649Z,101103.00
2018-09-27T06:41:12.637Z,101106.00
2018-09-27T06:43:42.354Z,101106.00
2018-09-27T06:46:11.946Z,101100.00
2018-09-27T06:48:42.264Z,101102.00
2018-09-27T06:51:12.706Z,101102.00
2018-09-27T06:53:43.347Z,101106.00
2018-09-27T06:56:13.373Z,101100.00
2018-09-27T06:58:44.107Z,101097.00
2018-09-27T07:01:13.787Z,101101.00
2018-09-27T07:03:43.477Z,101105.00
2018-09-27T07:06:13.234Z,101105.00
2018-09-27T07:08:43.166Z,101101.00
2018-09-27T07:11:13.083Z,101108.00
2018-09-27T07:13:42.672Z,101105.00
2018-09-27T07:16:12.766Z,101105.00
2018-09-27T07:18:42.600Z,101094.00
2018-09-27T07:21:12.217Z,101095.00
2018-09-27T07:23:42.530Z,101091.00
2018-09-27T07:26:12.090Z,101095.00
2018-09-27T07:28:42.452Z,101096.00
2018-09-27T07:31:13.732Z,101097.00
2018-09-27T07:33:43.098Z,101094.00
2018-09-27T07:36:12.697Z,101094.00
2018-09-27T07:38:43.260Z,101099.00
2018-09-27T07:41:13.553Z,101093.00
2018-09-27T07:43:43.143Z,101100.00
2018-09-27T07:46:13.120Z,101093.00
2018-09-27T07:48:42.936Z,101089.00
2018-09-27T07:51:13.174Z,101090.00
2018-09-27T07:53:42.873Z,101090.00
2018-09-27T07:56:12.762Z,101086.00
2018-09-27T07:58:42.202Z,101094.00
2018-09-27T08:01:12.864Z,101093.00
2018-09-27T08:03:42.424Z,101091.00
2018-09-27T08:06:12.495Z,101092.00
2018-09-27T08:08:42.642Z,101084.00
2018-09-27T08:11:12.547Z,101084.00
2018-09-27T08:13:41.995Z,101086.00
2018-09-27T08:16:12.161Z,101077.00
2018-09-27T08:18:42.066Z,101078.00
2018-09-27T08:21:16.685Z,101080.00
2018-09-27T08:23:50.187Z,101082.00
2018-09-27T08:26:19.669Z,101080.00
2018-09-27T08:28:49.197Z,101077.00
2018-09-27T08:31:19.913Z,101079.00
2018-09-27T08:33:49.493Z,101080.00
2018-09-27T08:36:19.349Z,101077.00
2018-09-27T08:38:48.895Z,101078.00
2018-09-27T08:41:18.693Z,101078.00
2018-09-27T08:43:48.354Z,101076.00
2018-09-27T08:46:17.807Z,101070.00
2018-09-27T08:48:47.480Z,101062.00
2018-09-27T08:51:17.175Z,101057.00
2018-09-27T08:53:46.656Z,101052.00
2018-09-27T08:56:16.616Z,101057.00
2018-09-27T08:58:45.859Z,101052.00
2018-09-27T09:01:15.830Z,101049.00
2018-09-27T09:03:45.431Z,101044.00
2018-09-27T09:06:14.701Z,101040.00
2018-09-27T09:08:44.596Z,101043.00
2018-09-27T09:11:14.777Z,101036.00
2018-09-27T09:13:44.856Z,101042.00
2018-09-27T09:16:14.772Z,101039.00
2018-09-27T09:18:44.491Z,101034.00
2018-09-27T09:21:14.557Z,101033.00
2018-09-27T09:23:44.585Z,101024.00
2018-09-27T09:26:14.375Z,101028.00
2018-09-27T09:28:44.208Z,101028.00
2018-09-27T09:31:16.948Z,101022.00
2018-09-27T09:33:46.715Z,101021.00
2018-09-27T09:36:17.166Z,101022.00
2018-09-27T09:38:47.039Z,101019.00
2018-09-27T09:41:18.065Z,101010.00
2018-09-27T09:43:47.480Z,101008.00
2018-09-27T09:46:17.633Z,101002.00
2018-09-27T09:48:47.010Z,100999.00
2018-09-27T09:51:17.199Z,100992.00
2018-09-27T09:53:47.032Z,100991.00
2018-09-27T09:56:16.894Z,100988.00
2018-09-27T09:58:46.806Z,100983.00
2018-09-27T10:01:17.036Z,100977.00
2018-09-27T10:03:46.716Z,100974.00
2018-09-27T10:06:19.179Z,100977.00
2018-09-27T10:08:50.345Z,100980.00
2018-09-27T10:11:22.154Z,100975.00
2018-09-27T10:13:52.749Z,100975.00
2018-09-27T10:16:23.163Z,100971.00
2018-09-27T10:18:53.285Z,100969.00
2018-09-27T10:21:23.989Z,100968.00
2018-09-27T10:23:53.271Z,100966.00
2018-09-27T10:26:22.624Z,100961.00
2018-09-27T10:28:51.973Z,100964.00
2018-09-27T10:31:21.701Z,100960.00
2018-09-27T10:33:51.780Z,100954.00
2018-09-27T10:36:23.105Z,100951.00
2018-09-27T10:38:53.646Z,100949.00
2018-09-27T10:41:27.048Z,100949.00
2018-09-27T10:43:56.999Z,100946.00
2018-09-27T10:46:26.339Z,100941.00
2018-09-27T10:48:56.324Z,100938.00
2018-09-27T10:51:25.885Z,100935.00
2018-09-27T10:53:55.626Z,100938.00
2018-09-27T10:56:25.296Z,100929.00
2018-09-27T10:58:54.710Z,100927.00
2018-09-27T11:01:24.802Z,100924.00
2018-09-27T11:03:54.250Z,100912.00
2018-09-27T11:06:23.817Z,100912.00
2018-09-27T11:08:53.526Z,100908.00
2018-09-27T11:11:23.570Z,100906.00
2018-09-27T11:13:52.914Z,100901.00
2018-09-27T11:16:22.733Z,100900.00
2018-09-27T11:18:52.269Z,100890.00
2018-09-27T11:21:22.287Z,100880.00
2018-09-27T11:23:52.021Z,100878.00
2018-09-27T11:26:21.910Z,100875.00
2018-09-27T11:28:56.492Z,100872.00
2018-09-27T11:31:30.923Z,100870.00
2018-09-27T11:34:00.617Z,100867.00
2018-09-27T11:36:30.062Z,100859.00
2018-09-27T11:38:59.838Z,100858.00
2018-09-27T11:41:29.360Z,100848.00
2018-09-27T11:44:00.372Z,100840.00
2018-09-27T11:46:29.902Z,100844.00
2018-09-27T11:48:59.573Z,100836.00
2018-09-27T11:51:29.160Z,100827.00
2018-09-27T11:53:58.851Z,100830.00
2018-09-27T11:56:28.653Z,100815.00
2018-09-27T11:58:58.772Z,100816.00
2018-09-27T12:01:28.415Z,100808.00
2018-09-27T12:03:57.949Z,100804.00
2018-09-27T12:06:28.060Z,100798.00
2018-09-27T12:08:57.731Z,100795.00
2018-09-27T12:11:27.157Z,100786.00
2018-09-27T12:13:56.933Z,100780.00
2018-09-27T12:16:26.389Z,100775.00
2018-09-27T12:18:59.162Z,100772.00
2018-09-27T12:21:28.597Z,100763.00
2018-09-27T12:23:59.432Z,100756.00
2018-09-27T12:26:29.661Z,100751.00
2018-09-27T12:28:59.249Z,100746.00
2018-09-27T12:31:29.349Z,100747.00
2018-09-27T12:34:00.033Z,100745.00
2018-09-27T12:36:29.407Z,100742.00
2018-09-27T12:38:59.133Z,100739.00
2018-09-27T12:41:28.630Z,100734.00
2018-09-27T12:43:58.927Z,100725.00
2018-09-27T12:46:28.302Z,100717.00
2018-09-27T12:48:59.293Z,100708.00
2018-09-27T12:51:30.106Z,100710.00
2018-09-27T12:53:59.994Z,100704.00
2018-09-27T12:56:31.492Z,100697.00
2018-09-27T12:59:02.405Z,100692.00
2018-09-27T13:01:32.327Z,100691.00
2018-09-27T13:04:01.925Z,100686.00
2018-09-27T13:06:31.573Z,100678.00
2018-09-27T13:09:02.045Z,100678.00
2018-09-27T13:11:32.111Z,100671.00
2018-09-27T13:14:08.404Z,100669.00
2018-09-27T13:16:37.813Z,100668.00
2018-09-27T13:19:07.798Z,100662.00
2018-09-27T13:24:13.306Z,100653.00
2018-09-27T13:26:43.265Z,100643.00
2018-09-27T13:29:12.939Z,100635.00
2018-09-27T13:31:42.746Z,100635.00
2018-09-27T13:34:12.765Z,100634.00
2018-09-27T13:36:42.198Z,100634.00
2018-09-27T13:39:12.211Z,100628.00
2018-09-27T13:41:42.165Z,100618.00
2018-09-27T13:44:11.772Z,100620.00
2018-09-27T13:46:41.043Z,100616.00
2018-09-27T13:49:13.302Z,100615.00
2018-09-27T13:51:43.023Z,100611.00
2018-09-27T13:54:12.708Z,100606.00
2018-09-27T13:56:43.814Z,100605.00
2018-09-27T13:59:14.569Z,100603.00
2018-09-27T14:01:44.299Z,100601.00
2018-09-27T14:04:13.742Z,100594.00
2018-09-27T14:06:43.304Z,100594.00
2018-09-27T14:09:14.146Z,100590.00
2018-09-27T14:11:44.630Z,100579.00
2018-09-27T14:14:14.269Z,100584.00
2018-09-27T14:16:43.632Z,100579.00
2018-09-27T14:19:13.313Z,100577.00
2018-09-27T14:21:42.901Z,100578.00
2018-09-27T14:24:12.628Z,100571.00
2018-09-27T14:26:42.892Z,100569.00
2018-09-27T14:29:12.897Z,100558.00
2018-09-27T14:31:42.408Z,100560.00
2018-09-27T14:34:11.818Z,100556.00
2018-09-27T14:36:41.328Z,100546.00
2018-09-27T14:39:11.644Z,100552.00
2018-09-27T14:41:41.656Z,100548.00
2018-09-27T14:44:11.307Z,100549.00
2018-09-27T14:46:40.848Z,100551.00
2018-09-27T14:49:13.478Z,100547.00
2018-09-27T14:51:43.101Z,100545.00
2018-09-27T14:54:12.638Z,100540.00
2018-09-27T14:56:42.118Z,100536.00
2018-09-27T14:59:11.777Z,100535.00
2018-09-27T15:01:41.258Z,100527.00
2018-09-27T15:04:10.635Z,100525.00
2018-09-27T15:06:40.081Z,100527.00
2018-09-27T15:09:11.023Z,100524.00
2018-09-27T15:11:40.725Z,100513.00
2018-09-27T15:14:10.209Z,100517.00
2018-09-27T15:16:39.371Z,100517.00
2018-09-27T15:19:08.904Z,100519.00
2018-09-27T15:21:38.551Z,100515.00
2018-09-27T15:24:08.422Z,100514.00
2018-09-27T15:26:37.757Z,100508.00
2018-09-27T15:29:07.397Z,100506.00
2018-09-27T15:31:36.697Z,100504.00
2018-09-27T15:34:06.206Z,100503.00
2018-09-27T15:36:35.680Z,100501.00
2018-09-27T15:39:06.332Z,100502.00
2018-09-27T15:41:35.793Z,100503.00
2018-09-27T15:44:07.953Z,100504.00
2018-09-27T15:46:37.290Z,100501.00
2018-09-27T15:49:06.617Z,100497.00
2018-09-27T15:51:36.028Z,100493.00
2018-09-27T15:54:05.357Z,100491.00
2018-09-27T15:56:34.870Z,100493.00
2018-09-27T15:59:04.837Z,100488.00
2018-09-27T16:01:34.479Z,100482.00
2018-09-27T16:04:04.057Z,100483.00
2018-09-27T16:06:33.373Z,100479.00
2018-09-27T16:09:02.750Z,100478.00
2018-09-27T16:11:32.173Z,100481.00
2018-09-27T16:14:01.455Z,100481.00
2018-09-27T16:16:30.656Z,100474.00
2018-09-27T16:18:59.898Z,100472.00
2018-09-27T16:21:29.301Z,100470.00
2018-09-27T16:23:58.597Z,100465.00
2018-09-27T16:26:28.036Z,100461.00
2018-09-27T16:28:57.570Z,100465.00
2018-09-27T16:31:26.886Z,100464.00
2018-09-27T16:33:57.035Z,100465.00
2018-09-27T16:36:26.121Z,100471.00
2018-09-27T16:38:55.501Z,100465.00
2018-09-27T16:41:24.892Z,100463.00
2018-09-27T16:43:54.120Z,100463.00
2018-09-27T16:46:23.501Z,100458.00
2018-09-27T16:48:52.816Z,100455.00
2018-09-27T16:51:22.181Z,100451.00
2018-09-27T16:53:51.405Z,100457.00
2018-09-27T16:56:20.615Z,100452.00
2018-09-27T16:58:49.967Z,100449.00
2018-09-27T17:01:19.355Z,100453.00
2018-09-27T17:03:49.029Z,100452.00
2018-09-27T17:06:18.643Z,100448.00
2018-09-27T17:08:48.784Z,100443.00
2018-09-27T17:11:18.346Z,100452.00
2018-09-27T17:13:47.709Z,100448.00
2018-09-27T17:16:18.729Z,100442.00
2018-09-27T17:18:50.840Z,100444.00
2018-09-27T17:21:20.850Z,100444.00
2018-09-27T17:23:50.443Z,100449.00
2018-09-27T17:26:20.331Z,100443.00
2018-09-27T17:28:49.545Z,100447.00
2018-09-27T17:31:20.139Z,100444.00
2018-09-27T17:33:49.575Z,100441.00
2018-09-27T17:36:19.051Z,100439.00
2018-09-27T17:38:49.134Z,100443.00
2018-09-27T17:41:20.629Z,100444.00
2018-09-27T17:43:50.567Z,100449.00
2018-09-27T17:46:20.680Z,100446.00
2018-09-27T17:48:51.341Z,100449.00
2018-09-27T17:51:22.920Z,100454.00
2018-09-27T17:53:52.483Z,100452.00
2018-09-27T17:56:22.442Z,100447.00
2018-09-27T17:58:52.846Z,100451.00
2018-09-27T18:01:24.498Z,100445.00
2018-09-27T18:03:54.264Z,100451.00
2018-09-27T18:06:23.930Z,100457.00
2018-09-27T18:08:53.757Z,100457.00
2018-09-27T18:11:23.059Z,100452.00
2018-09-27T18:13:54.746Z,100452.00
2018-09-27T18:16:24.121Z,100454.00
2018-09-27T18:18:53.631Z,100450.00
2018-09-27T18:21:22.889Z,100450.00
2018-09-27T18:23:53.127Z,100450.00
2018-09-27T18:26:24.022Z,100445.00
2018-09-27T18:28:53.829Z,100448.00
2018-09-27T18:31:23.074Z,100444.00
2018-09-27T18:33:54.203Z,100448.00
2018-09-27T18:36:24.508Z,100453.00
2018-09-27T18:38:53.690Z,100454.00
2018-09-27T18:41:23.509Z,100451.00
2018-09-27T18:43:52.755Z,100453.00
2018-09-27T18:46:22.773Z,100451.00
2018-09-27T18:48:52.196Z,100450.00
2018-09-27T18:51:21.714Z,100455.00
2018-09-27T18:53:52.198Z,100450.00
2018-09-27T18:56:22.545Z,100455.00
2018-09-27T18:58:51.956Z,100455.00
2018-09-27T19:01:21.394Z,100462.00
2018-09-27T19:03:50.693Z,100460.00
2018-09-27T19:06:19.848Z,100464.00
2018-09-27T19:08:49.186Z,100459.00
2018-09-27T19:11:18.331Z,100461.00
2018-09-27T19:13:47.595Z,100458.00
2018-09-27T19:16:16.963Z,100465.00
2018-09-27T19:18:46.232Z,100462.00
2018-09-27T19:21:15.592Z,100466.00
2018-09-27T19:23:45.094Z,100465.00
2018-09-27T19:26:14.434Z,100464.00
2018-09-27T19:28:45.999Z,100463.00
2018-09-27T19:31:18.568Z,100464.00
2018-09-27T19:33:48.673Z,100455.00
2018-09-27T19:36:18.074Z,100462.00
2018-09-27T19:38:47.966Z,100466.00
2018-09-27T19:41:17.110Z,100461.00
2018-09-27T19:43:46.481Z,100459.00
2018-09-27T19:46:17.008Z,100459.00
2018-09-27T19:48:47.105Z,100460.00
2018-09-27T19:51:16.995Z,100460.00
2018-09-27T19:53:47.244Z,100458.00
2018-09-27T19:56:17.059Z,100459.00
2018-09-27T19:58:46.846Z,100464.00
2018-09-27T20:01:16.702Z,100470.00
2018-09-27T20:03:46.356Z,100474.00
2018-09-27T20:06:18.361Z,100470.00
2018-09-27T20:08:49.481Z,100471.00
2018-09-27T20:11:18.846Z,100470.00
2018-09-27T20:13:48.033Z,100473.00
2018-09-27T20:16:17.326Z,100470.00
2018-09-27T20:18:47.885Z,100476.00
2018-09-27T20:21:17.258Z,100478.00
2018-09-27T20:23:46.450Z,100482.00
2018-09-27T20:26:16.216Z,100477.00
2018-09-27T20:28:45.559Z,100476.00
2018-09-27T20:31:14.971Z,100483.00
2018-09-27T20:33:44.128Z,100485.00
2018-09-27T20:36:13.567Z,100487.00
2018-09-27T20:38:42.640Z,100483.00
2018-09-27T20:41:12.573Z,100485.00
2018-09-27T20:43:42.143Z,100481.00
2018-09-27T20:46:11.394Z,100478.00
2018-09-27T20:48:41.181Z,100478.00
2018-09-27T20:51:12.249Z,100475.00
2018-09-27T20:53:45.074Z,100475.00
2018-09-27T20:56:14.723Z,100474.00
2018-09-27T20:58:44.541Z,100472.00
2018-09-27T21:01:14.612Z,100468.00
2018-09-27T21:03:43.919Z,100464.00
2018-09-27T21:06:13.429Z,100470.00
2018-09-27T21:08:44.162Z,100470.00
2018-09-27T21:11:17.064Z,100474.00
2018-09-27T21:13:46.425Z,100471.00
2018-09-27T21:16:17.140Z,100472.00
2018-09-27T21:18:46.881Z,100477.00
2018-09-27T21:21:18.320Z,100473.00
2018-09-27T21:23:49.475Z,100470.00
2018-09-27T21:26:20.291Z,100476.00
2018-09-27T21:28:49.736Z,100469.00
2018-09-27T21:31:18.972Z,100475.00
2018-09-27T21:33:48.317Z,100469.00
2018-09-27T21:36:18.332Z,100473.00
2018-09-27T21:38:48.015Z,100468.00
2018-09-27T21:41:17.112Z,100466.00
2018-09-27T21:43:46.318Z,100473.00
2018-09-27T21:46:15.837Z,100474.00
2018-09-27T21:48:45.232Z,100471.00
2018-09-27T21:51:14.496Z,100468.00
2018-09-27T21:53:45.481Z,100469.00
2018-09-27T21:56:14.963Z,100463.00
2018-09-27T21:58:44.396Z,100458.00
2018-09-27T22:01:13.922Z,100454.00
2018-09-27T22:03:44.005Z,100457.00
2018-09-27T22:06:13.359Z,100457.00
2018-09-27T22:08:43.534Z,100454.00
2018-09-27T22:11:12.972Z,100454.00
2018-09-27T22:13:44.170Z,100451.00
2018-09-27T22:16:14.783Z,100453.00
2018-09-27T22:18:44.909Z,100450.00
2018-09-27T22:21:14.145Z,100450.00
2018-09-27T22:23:43.899Z,100449.00
2018-09-27T22:26:13.633Z,100453.00
2018-09-27T22:28:43.503Z,100452.00
2018-09-27T22:31:14.699Z,100451.00
2018-09-27T22:33:45.631Z,100448.00
2018-09-27T22:36:15.106Z,100449.00
2018-09-27T22:38:46.355Z,100452.00
2018-09-27T22:41:15.666Z,100458.00
2018-09-27T22:43:45.416Z,100451.00
2018-09-27T22:46:15.169Z,100450.00
2018-09-27T22:48:44.636Z,100435.00
2018-09-27T22:51:13.876Z,100440.00
2018-09-27T22:53:43.133Z,100431.00
2018-09-27T22:56:12.956Z,100432.00
2018-09-27T22:58:42.699Z,100433.00
2018-09-27T23:01:12.129Z,100433.00
2018-09-27T23:03:41.418Z,100430.00
2018-09-27T23:06:10.780Z,100431.00
2018-09-27T23:08:40.189Z,100435.00
2018-09-27T23:11:09.425Z,100432.00
2018-09-27T23:13:38.617Z,100431.00
2018-09-27T23:16:07.784Z,100431.00
2018-09-27T23:18:36.937Z,100431.00
2018-09-27T23:21:06.198Z,100435.00
2018-09-27T23:23:35.287Z,100431.00
2018-09-27T23:26:04.401Z,100434.00
2018-09-27T23:28:33.543Z,100436.00
2018-09-27T23:31:02.747Z,100428.00
2018-09-27T23:33:31.872Z,100427.00
2018-09-27T23:36:01.004Z,100429.00
2018-09-27T23:38:30.253Z,100426.00
2018-09-27T23:40:59.345Z,100425.00
2018-09-27T23:43:29.153Z,100431.00
2018-09-27T23:45:58.331Z,100433.00
2018-09-27T23:48:27.388Z,100432.00
2018-09-27T23:50:56.496Z,100425.00
2018-09-27T23:53:25.679Z,100426.00
2018-09-27T23:55:54.767Z,100429.00
2018-09-27T23:58:23.877Z,100427.00
